Terminal Aerodrome Forecast
Issued by NWS

Home | Current Version | Previous Version | Text Only | Print | Product List | Glossary On
Versions: 1 2 3 4 5 6 7 8 9 10 11 12 13 14 15 16 17 18
773
FTUS41 KBTV 061735
TAFSLK
TAF
KSLK 061735Z 0618/0718 VRB03KT P6SM SCT020
     FM070200 VRB03KT P6SM VCSH OVC070
     FM070500 VRB03KT 1SM -SN BR OVC009
     FM071100 17005KT 3SM -SN BR OVC010
     FM071400 20008KT P6SM VCSH BKN015=

USA.gov is the U.S. government's official web portal to all federal, state and local government web resources and services.